sensor_id;sensor_type;location;lat;lon;timestamp;P1;durP1;ratioP1;P2;durP2;ratioP2
12709;SDS011;6419;51.068;4.532;2022-08-01T00:00:40;1.10;;;1.10;;
12709;SDS011;6419;51.068;4.532;2022-08-01T00:03:06;0.97;;;0.97;;
12709;SDS011;6419;51.068;4.532;2022-08-01T00:05:33;2.10;;;1.30;;
12709;SDS011;6419;51.068;4.532;2022-08-01T00:07:59;1.73;;;1.27;;
12709;SDS011;6419;51.068;4.532;2022-08-01T00:10:26;1.30;;;1.20;;
12709;SDS011;6419;51.068;4.532;2022-08-01T00:12:52;1.17;;;1.13;;
12709;SDS011;6419;51.068;4.532;2022-08-01T00:15:19;1.00;;;1.00;;
12709;SDS011;6419;51.068;4.532;2022-08-01T00:17:46;2.53;;;1.20;;
12709;SDS011;6419;51.068;4.532;2022-08-01T00:20:13;1.40;;;1.17;;
12709;SDS011;6419;51.068;4.532;2022-08-01T00:22:39;1.07;;;0.80;;
12709;SDS011;6419;51.068;4.532;2022-08-01T00:25:06;1.40;;;1.30;;
12709;SDS011;6419;51.068;4.532;2022-08-01T00:27:32;1.83;;;1.40;;
12709;SDS011;6419;51.068;4.532;2022-08-01T00:29:59;1.10;;;1.03;;
12709;SDS011;6419;51.068;4.532;2022-08-01T00:32:25;1.07;;;1.07;;
12709;SDS011;6419;51.068;4.532;2022-08-01T00:34:52;1.40;;;1.30;;
12709;SDS011;6419;51.068;4.532;2022-08-01T00:37:18;1.30;;;1.20;;
12709;SDS011;6419;51.068;4.532;2022-08-01T00:39:45;0.97;;;0.97;;
12709;SDS011;6419;51.068;4.532;2022-08-01T00:42:12;1.58;;;1.40;;
12709;SDS011;6419;51.068;4.532;2022-08-01T00:44:38;1.27;;;1.17;;
12709;SDS011;6419;51.068;4.532;2022-08-01T00:47:05;1.67;;;1.40;;
12709;SDS011;6419;51.068;4.532;2022-08-01T00:49:31;1.87;;;1.60;;
12709;SDS011;6419;51.068;4.532;2022-08-01T00:51:58;1.90;;;1.50;;
12709;SDS011;6419;51.068;4.532;2022-08-01T00:54:25;1.90;;;1.67;;
12709;SDS011;6419;51.068;4.532;2022-08-01T00:56:51;1.13;;;1.13;;
12709;SDS011;6419;51.068;4.532;2022-08-01T00:59:18;1.57;;;1.47;;
12709;SDS011;6419;51.068;4.532;2022-08-01T01:01:44;1.40;;;1.30;;
12709;SDS011;6419;51.068;4.532;2022-08-01T01:04:11;1.87;;;1.30;;
12709;SDS011;6419;51.068;4.532;2022-08-01T01:14:30;1.90;;;1.30;;
12709;SDS011;6419;51.068;4.532;2022-08-01T01:16:54;1.55;;;1.45;;
12709;SDS011;6419;51.068;4.532;2022-08-01T01:19:23;1.40;;;1.30;;
12709;SDS011;6419;51.068;4.532;2022-08-01T01:22:06;1.87;;;1.20;;
12709;SDS011;6419;51.068;4.532;2022-08-01T01:27:21;1.70;;;1.40;;
12709;SDS011;6419;51.068;4.532;2022-08-01T01:29:46;1.30;;;1.20;;
12709;SDS011;6419;51.068;4.532;2022-08-01T01:32:17;2.03;;;1.33;;
12709;SDS011;6419;51.068;4.532;2022-08-01T01:34:44;1.40;;;1.30;;
12709;SDS011;6419;51.068;4.532;2022-08-01T01:37:11;2.10;;;1.53;;
12709;SDS011;6419;51.068;4.532;2022-08-01T01:39:39;2.10;;;1.60;;
12709;SDS011;6419;51.068;4.532;2022-08-01T01:42:05;1.50;;;1.33;;
12709;SDS011;6419;51.068;4.532;2022-08-01T01:44:32;1.50;;;1.40;;
12709;SDS011;6419;51.068;4.532;2022-08-01T01:46:59;1.17;;;1.17;;
12709;SDS011;6419;51.068;4.532;2022-08-01T01:49:26;1.70;;;1.50;;
12709;SDS011;6419;51.068;4.532;2022-08-01T01:51:53;2.33;;;1.47;;
12709;SDS011;6419;51.068;4.532;2022-08-01T01:54:18;1.73;;;1.63;;
12709;SDS011;6419;51.068;4.532;2022-08-01T01:56:45;1.37;;;1.27;;
12709;SDS011;6419;51.068;4.532;2022-08-01T01:59:21;1.80;;;1.70;;
12709;SDS011;6419;51.068;4.532;2022-08-01T02:01:47;1.63;;;1.33;;
12709;SDS011;6419;51.068;4.532;2022-08-01T02:04:13;1.93;;;1.67;;
12709;SDS011;6419;51.068;4.532;2022-08-01T02:06:40;1.73;;;1.53;;
12709;SDS011;6419;51.068;4.532;2022-08-01T02:09:06;1.47;;;1.37;;
12709;SDS011;6419;51.068;4.532;2022-08-01T02:11:33;2.10;;;1.97;;
12709;SDS011;6419;51.068;4.532;2022-08-01T02:14:01;1.70;;;1.60;;
12709;SDS011;6419;51.068;4.532;2022-08-01T02:16:27;1.60;;;1.50;;
12709;SDS011;6419;51.068;4.532;2022-08-01T02:18:53;2.00;;;1.90;;
12709;SDS011;6419;51.068;4.532;2022-08-01T02:21:23;2.10;;;2.00;;
12709;SDS011;6419;51.068;4.532;2022-08-01T02:23:46;2.70;;;2.00;;
12709;SDS011;6419;51.068;4.532;2022-08-01T02:26:14;1.53;;;1.43;;
12709;SDS011;6419;51.068;4.532;2022-08-01T02:29:41;3.47;;;2.10;;
12709;SDS011;6419;51.068;4.532;2022-08-01T02:31:23;3.10;;;2.20;;
12709;SDS011;6419;51.068;4.532;2022-08-01T02:34:00;2.67;;;2.47;;
12709;SDS011;6419;51.068;4.532;2022-08-01T02:36:26;3.40;;;2.87;;
12709;SDS011;6419;51.068;4.532;2022-08-01T02:38:52;3.97;;;3.33;;
12709;SDS011;6419;51.068;4.532;2022-08-01T02:41:19;4.00;;;3.43;;
12709;SDS011;6419;51.068;4.532;2022-08-01T02:43:45;3.70;;;3.37;;
12709;SDS011;6419;51.068;4.532;2022-08-01T02:46:12;3.60;;;3.30;;
12709;SDS011;6419;51.068;4.532;2022-08-01T02:48:38;5.23;;;4.17;;
12709;SDS011;6419;51.068;4.532;2022-08-01T02:51:05;4.33;;;3.93;;
12709;SDS011;6419;51.068;4.532;2022-08-01T02:53:32;5.00;;;4.30;;
12709;SDS011;6419;51.068;4.532;2022-08-01T02:55:58;3.30;;;3.00;;
12709;SDS011;6419;51.068;4.532;2022-08-01T02:58:24;3.10;;;2.80;;
12709;SDS011;6419;51.068;4.532;2022-08-01T03:00:51;4.57;;;2.90;;
12709;SDS011;6419;51.068;4.532;2022-08-01T03:03:17;3.07;;;2.77;;
12709;SDS011;6419;51.068;4.532;2022-08-01T03:05:44;3.87;;;3.35;;
12709;SDS011;6419;51.068;4.532;2022-08-01T03:08:11;3.12;;;2.83;;
12709;SDS011;6419;51.068;4.532;2022-08-01T03:10:38;4.27;;;3.90;;
12709;SDS011;6419;51.068;4.532;2022-08-01T03:13:04;2.62;;;2.42;;
12709;SDS011;6419;51.068;4.532;2022-08-01T03:15:31;2.23;;;2.13;;
12709;SDS011;6419;51.068;4.532;2022-08-01T03:17:57;3.13;;;2.83;;
12709;SDS011;6419;51.068;4.532;2022-08-01T03:20:24;3.73;;;2.97;;
12709;SDS011;6419;51.068;4.532;2022-08-01T03:22:50;3.33;;;2.93;;
12709;SDS011;6419;51.068;4.532;2022-08-01T03:25:17;3.40;;;3.10;;
12709;SDS011;6419;51.068;4.532;2022-08-01T03:27:43;2.77;;;2.47;;
12709;SDS011;6419;51.068;4.532;2022-08-01T03:30:10;2.40;;;2.20;;
12709;SDS011;6419;51.068;4.532;2022-08-01T03:32:37;3.93;;;2.70;;
12709;SDS011;6419;51.068;4.532;2022-08-01T03:35:03;3.60;;;2.87;;
12709;SDS011;6419;51.068;4.532;2022-08-01T03:37:52;3.13;;;2.83;;
12709;SDS011;6419;51.068;4.532;2022-08-01T03:40:09;2.90;;;2.70;;
12709;SDS011;6419;51.068;4.532;2022-08-01T03:42:42;2.30;;;2.10;;
12709;SDS011;6419;51.068;4.532;2022-08-01T03:45:10;2.73;;;2.53;;
12709;SDS011;6419;51.068;4.532;2022-08-01T03:47:36;2.13;;;2.03;;
12709;SDS011;6419;51.068;4.532;2022-08-01T03:50:04;3.40;;;3.10;;
12709;SDS011;6419;51.068;4.532;2022-08-01T03:52:30;2.63;;;2.43;;
12709;SDS011;6419;51.068;4.532;2022-08-01T03:54:56;2.60;;;2.40;;
12709;SDS011;6419;51.068;4.532;2022-08-01T03:57:23;2.80;;;2.60;;
12709;SDS011;6419;51.068;4.532;2022-08-01T03:59:49;3.13;;;2.83;;
12709;SDS011;6419;51.068;4.532;2022-08-01T04:02:16;2.87;;;2.23;;
12709;SDS011;6419;51.068;4.532;2022-08-01T04:04:42;2.57;;;2.33;;
12709;SDS011;6419;51.068;4.532;2022-08-01T04:07:52;3.40;;;3.10;;
12709;SDS011;6419;51.068;4.532;2022-08-01T04:09:56;4.07;;;2.83;;
12709;SDS011;6419;51.068;4.532;2022-08-01T04:12:23;3.60;;;3.30;;
12709;SDS011;6419;51.068;4.532;2022-08-01T04:14:50;3.13;;;2.43;;
12709;SDS011;6419;51.068;4.532;2022-08-01T04:17:16;2.07;;;1.90;;
12709;SDS011;6419;51.068;4.532;2022-08-01T04:19:43;2.67;;;2.47;;
12709;SDS011;6419;51.068;4.532;2022-08-01T04:22:10;2.80;;;2.60;;
12709;SDS011;6419;51.068;4.532;2022-08-01T04:24:36;3.00;;;2.70;;
12709;SDS011;6419;51.068;4.532;2022-08-01T04:27:05;2.73;;;2.50;;
12709;SDS011;6419;51.068;4.532;2022-08-01T04:29:37;3.80;;;2.90;;
12709;SDS011;6419;51.068;4.532;2022-08-01T04:32:03;3.17;;;2.87;;
12709;SDS011;6419;51.068;4.532;2022-08-01T04:34:30;3.07;;;2.30;;
